ilmateenistus.ee keskkonnaagentuur.ee
EETN Tallinna lennuväli
FTEO31 EETN 251100
TAF EETN 251120Z 2512/2612 14010KT CAVOK PROB40 TEMPO 2512/2516
    SCT040CB=

METAR EETN 251450Z 12005KT CAVOK 20/15 Q1007 NOSIG=
Tallinna lennuväli
EEKA Kärdla lennuväli
FCEO32 EETN 251200
TAF EEKA 251200Z 2513/2519 1200KT 9999 SCT025 TEMPO 2513/2519 5000
    SHRA BKN010 SCT020CB PROB30 TEMPO 2513/2516 TSRA=

METAR EEKA 251450Z 08005KT 9999 SCT040 16/15 Q1005=
Kärdla lennuväli
EEKE Kuressaare lennuväli
FCEO32 EETN 251400
TAF EEKE 251400Z 2515/2521 11012G23KT 9999 SCT040 TEMPO 2515/2518
    SCT030CB=

METAR EEKE 251450Z 11010KT CAVOK 18/13 Q1004=
Kuressaare lennuväli
EEPU Pärnu lennuväli
METAR EEPU 251450Z NIL=
Pärnu lennuväli
EETU Tartu lennuväli
METAR EETU 251450Z 10008KT CAVOK 20/12 Q1008=
Tartu lennuväli
EEEI Ämari lennuväli
METAR EEEI 251450Z 08005KT CAVOK 20/16 Q1006 NOSIG=
Ämari lennuväli